Time;durP1;ratioP1;P1;durP2;ratioP2;P2;SDS_P1;SDS_P2;PMS_P1;PMS_P2;Temp;Humidity;BMP_temperature;BMP_pressure;BME280_temperature;BME280_humidity;BME280_pressure;Samples;Min_cycle;Max_cycle;Signal;HPM_P1;HPM_P2
2022/12/09 00:01:12;;;;;;;65.78;23.20;;;;;;;2.93;100.00;100208.20;1690626;82;21202;-67
2022/12/09 00:03:39;;;;;;;53.65;16.62;;;;;;;2.86;100.00;100213.02;1660867;86;21940;-66
2022/12/09 00:06:09;;;;;;;69.85;23.15;;;;;;;2.47;100.00;100221.38;1687761;83;21049;-67
2022/12/09 00:08:36;;;;;;;70.72;26.05;;;;;;;2.64;100.00;100216.97;1657763;86;21088;-68
2022/12/09 00:11:03;;;;;;;64.72;21.50;;;;;;;2.72;100.00;100219.13;1652599;86;21119;-68
2022/12/09 00:13:29;;;;;;;76.65;24.95;;;;;;;2.83;100.00;100209.99;1655444;86;21241;-67
2022/12/09 00:15:57;;;;;;;80.28;24.65;;;;;;;2.97;100.00;100203.84;1691711;83;21400;-67
2022/12/09 00:18:24;;;;;;;74.82;25.00;;;;;;;2.67;100.00;100203.13;1692537;83;21068;-67
2022/12/09 00:20:51;;;;;;;86.70;27.20;;;;;;;2.83;100.00;100203.48;1659664;86;21126;-67
2022/12/09 00:23:17;;;;;;;70.03;23.27;;;;;;;2.90;100.00;100201.73;1691114;83;21172;-68
2022/12/09 00:25:44;;;;;;;79.27;27.27;;;;;;;2.70;100.00;100194.86;1685928;83;21097;-67
2022/12/09 00:28:11;;;;;;;70.42;22.35;;;;;;;2.44;100.00;100188.45;1656766;86;21697;-68
2022/12/09 00:30:38;;;;;;;69.47;21.45;;;;;;;2.71;100.00;100192.70;1662383;86;21120;-66
2022/12/09 00:33:04;;;;;;;88.87;27.35;;;;;;;2.57;100.00;100191.86;1653015;86;21611;-68
2022/12/09 00:35:31;;;;;;;74.95;26.00;;;;;;;2.22;100.00;100175.94;1657349;86;21074;-68
2022/12/09 00:37:57;;;;;;;75.95;25.40;;;;;;;2.29;100.00;100158.61;1659908;86;21109;-67
2022/12/09 00:40:24;;;;;;;83.33;25.62;;;;;;;2.60;100.00;100151.58;1692635;83;21240;-67
2022/12/09 00:42:50;;;;;;;79.82;26.85;;;;;;;2.31;100.00;100151.23;1688956;83;21636;-68
2022/12/09 00:45:18;;;;;;;89.07;27.77;;;;;;;2.80;100.00;100149.30;1690021;83;21132;-68
2022/12/09 00:47:44;;;;;;;86.65;27.45;;;;;;;2.86;100.00;100154.48;1655311;86;21034;-69
2022/12/09 00:50:11;;;;;;;77.08;24.47;;;;;;;2.57;100.00;100147.67;1631490;85;21080;-68
2022/12/09 00:52:38;;;;;;;82.37;25.43;;;;;;;2.45;100.00;100171.12;1631001;85;21143;-68
2022/12/09 00:55:06;;;;;;;80.22;24.52;;;;;;;2.30;100.00;100187.60;1630581;85;21047;-68
2022/12/09 00:57:33;;;;;;;84.55;28.12;;;;;;;2.25;100.00;100200.61;1692808;82;21161;-67
2022/12/09 00:59:59;;;;;;;75.28;23.27;;;;;;;2.17;100.00;100199.77;1687270;84;21097;-67
2022/12/09 01:02:26;;;;;;;80.05;26.02;;;;;;;2.43;100.00;100198.84;1698140;82;21124;-67
2022/12/09 01:04:53;;;;;;;85.60;27.07;;;;;;;2.69;100.00;100201.35;1695548;82;21142;-66
2022/12/09 01:07:20;;;;;;;91.45;27.48;;;;;;;2.59;100.00;100203.13;1691387;82;21088;-67
2022/12/09 01:09:47;;;;;;;82.55;25.95;;;;;;;2.31;100.00;100197.15;1690741;82;21042;-67
2022/12/09 01:12:14;;;;;;;76.05;26.00;;;;;;;2.43;100.00;100199.70;1655392;86;21081;-68
2022/12/09 01:14:42;;;;;;;85.22;29.00;;;;;;;2.90;100.00;100184.82;1654918;86;21077;-68
2022/12/09 01:17:08;;;;;;;81.70;26.55;;;;;;;2.76;100.00;100181.39;1653168;86;21261;-68
2022/12/09 01:19:35;;;;;;;86.10;27.20;;;;;;;2.60;100.00;100190.58;1662796;85;21052;-66
2022/12/09 01:22:01;;;;;;;88.90;29.60;;;;;;;2.52;100.00;100180.18;1660167;86;21066;-68
2022/12/09 01:24:28;;;;;;;97.37;29.15;;;;;;;2.52;100.00;100175.42;1634305;85;21089;-66
2022/12/09 01:26:55;;;;;;;90.20;27.42;;;;;;;2.66;100.00;100158.03;1693348;83;22215;-67
2022/12/09 01:29:22;;;;;;;83.17;26.77;;;;;;;3.03;100.00;100153.94;1688576;83;21146;-67
2022/12/09 01:31:49;;;;;;;79.85;28.23;;;;;;;2.66;100.00;100165.83;1691074;83;21116;-67
2022/12/09 01:34:15;;;;;;;85.83;29.87;;;;;;;2.67;100.00;100156.32;1656758;86;21085;-67
2022/12/09 01:36:42;;;;;;;86.90;29.67;;;;;;;2.68;100.00;100155.43;1658931;86;21065;-67
2022/12/09 01:39:09;;;;;;;61.18;23.57;;;;;;;2.62;100.00;100149.84;1660570;86;21053;-66
2022/12/09 01:41:35;;;;;;;75.50;25.95;;;;;;;2.48;100.00;100143.36;1659520;86;21600;-67
2022/12/09 01:44:16;;;;;;;58.63;22.60;;;;;;;2.39;100.00;100136.04;1634496;84;21129;-69
2022/12/09 01:46:42;;;;;;;50.03;19.62;;;;;;;2.65;100.00;100143.31;1627312;85;21161;-66
2022/12/09 01:49:13;;;;;;;49.65;18.32;;;;;;;2.65;100.00;100142.02;1631242;85;21163;-67
2022/12/09 01:51:41;;;;;;;53.70;19.55;;;;;;;2.56;100.00;100139.89;1688154;83;21596;-66
2022/12/09 01:54:08;;;;;;;59.70;21.65;;;;;;;2.77;100.00;100128.52;1659794;86;21093;-68
2022/12/09 01:56:35;;;;;;;56.50;21.20;;;;;;;2.51;100.00;100122.58;1661414;86;21077;-66
2022/12/09 01:59:10;;;;;;;62.83;23.27;;;;;;;2.55;100.00;100117.34;1655712;86;21078;-66
2022/12/09 02:01:37;;;;;;;59.58;23.40;;;;;;;2.60;100.00;100121.67;1662668;86;21088;-69
2022/12/09 02:04:04;;;;;;;53.40;18.17;;;;;;;2.84;100.00;100123.72;1687294;83;21078;-66
2022/12/09 02:06:37;;;;;;;50.35;19.10;;;;;;;2.76;100.00;100131.98;1656916;86;21207;-67
2022/12/09 02:09:04;;;;;;;51.18;19.00;;;;;;;2.70;100.00;100132.89;1652867;84;21053;-67
2022/12/09 02:11:37;;;;;;;43.35;17.05;;;;;;;2.70;100.00;100120.74;1662855;86;21064;-67
2022/12/09 02:14:21;;;;;;;35.03;14.15;;;;;;;2.83;100.00;100114.16;1690887;83;21168;-67
2022/12/09 02:17:12;;;;;;;38.60;16.55;;;;;;;2.93;100.00;100117.16;1689080;83;21104;-66
2022/12/09 02:20:06;;;;;;;31.73;14.53;;;;;;;2.83;100.00;100115.47;1691358;83;21173;-67
2022/12/09 02:22:50;;;;;;;23.38;11.35;;;;;;;2.75;100.00;100112.92;1691258;83;21108;-67
2022/12/09 02:25:46;;;;;;;25.37;11.33;;;;;;;2.85;100.00;100104.63;1689670;83;21116;-67
2022/12/09 05:45:23;;;;;;;20.95;11.22;;;;;;;1.94;100.00;100045.71;1749614;80;22242;-90
2022/12/09 05:47:51;;;;;;;20.62;10.53;;;;;;;2.03;100.00;100045.68;1759169;81;21082;-91
2022/12/09 05:50:18;;;;;;;21.02;11.10;;;;;;;2.22;100.00;100052.52;1751638;80;21145;-91
2022/12/09 05:52:45;;;;;;;23.02;13.00;;;;;;;2.97;100.00;100056.44;1725938;82;21066;-91
2022/12/09 05:55:11;;;;;;;22.93;12.15;;;;;;;2.49;100.00;100047.63;1767355;81;21377;-93
2022/12/09 05:57:38;;;;;;;23.27;11.83;;;;;;;2.48;100.00;100049.78;1702987;83;21099;-91
2022/12/09 06:00:06;;;;;;;21.37;10.70;;;;;;;2.72;100.00;100056.59;1668854;86;21281;-91
2022/12/09 06:02:35;;;;;;;26.65;11.90;;;;;;;2.41;100.00;100064.13;1654911;85;21017;-92
2022/12/09 06:05:02;;;;;;;22.48;12.25;;;;;;;2.38;100.00;100069.35;1671187;85;21067;-91
2022/12/09 06:07:29;;;;;;;24.07;11.95;;;;;;;2.78;100.00;100060.87;1639535;85;21067;-92
2022/12/09 06:09:55;;;;;;;19.80;11.40;;;;;;;2.61;100.00;100059.69;1652810;81;20902;-91
2022/12/09 06:12:22;;;;;;;21.45;12.30;;;;;;;2.69;100.00;100059.63;1742844;82;21063;-92
2022/12/09 06:14:50;;;;;;;28.38;13.10;;;;;;;2.38;100.00;100058.95;1727595;82;21536;-90
2022/12/09 06:17:17;;;;;;;23.40;12.58;;;;;;;2.31;100.00;100060.27;1728324;82;20999;-92
2022/12/09 06:19:44;;;;;;;25.10;12.90;;;;;;;2.98;100.00;100058.15;1729584;82;21063;-92
2022/12/09 06:22:12;;;;;;;27.20;13.22;;;;;;;3.05;100.00;100048.13;1726108;82;21063;-90
2022/12/09 06:24:38;;;;;;;27.22;14.10;;;;;;;3.26;100.00;100056.63;1711764;81;21396;-91
2022/12/09 06:27:05;;;;;;;25.45;11.78;;;;;;;3.22;100.00;100062.32;1710355;81;21041;-92
2022/12/09 06:29:33;;;;;;;31.27;14.07;;;;;;;3.36;100.00;100060.91;1704430;82;21087;-92
2022/12/09 06:32:29;;;;;;;;;;;;;;;;;;;;;
2022/12/09 06:34:48;;;;;;;30.10;14.90;;;;;;;3.74;100.00;100048.80;1716890;81;21036;-90
2022/12/09 06:37:17;;;;;;;33.05;14.43;;;;;;;3.52;100.00;100045.56;1713252;80;21261;-90
2022/12/09 06:39:44;;;;;;;31.90;14.80;;;;;;;3.76;100.00;100056.61;1734315;80;21155;-91
2022/12/09 06:42:12;;;;;;;28.07;13.32;;;;;;;3.90;100.00;100055.16;1721709;81;21059;-92
2022/12/09 06:44:40;;;;;;;28.45;14.18;;;;;;;3.91;100.00;100048.64;1735901;81;21456;-92
2022/12/09 06:47:06;;;;;;;27.50;14.18;;;;;;;3.33;100.00;100053.09;1738030;82;21015;-89
2022/12/09 06:49:33;;;;;;;30.27;13.03;;;;;;;3.42;100.00;100050.86;1725969;81;21718;-90
2022/12/09 06:52:00;;;;;;;27.58;13.93;;;;;;;3.51;100.00;100046.42;1719766;81;21647;-91
2022/12/09 06:54:27;;;;;;;27.32;13.30;;;;;;;3.79;100.00;100053.95;1729303;81;21035;-92
2022/12/09 06:56:57;;;;;;;24.70;12.60;;;;;;;3.75;100.00;100054.86;1733964;82;21063;-92
2022/12/09 06:59:31;;;;;;;27.10;13.43;;;;;;;4.05;100.00;100052.80;1733447;81;20994;-89
2022/12/09 07:01:58;;;;;;;25.08;12.58;;;;;;;4.12;100.00;100056.64;1726065;81;22086;-92
2022/12/09 07:04:26;;;;;;;25.55;11.60;;;;;;;3.98;100.00;100050.29;1726236;81;21571;-93
2022/12/09 07:06:53;;;;;;;24.43;12.53;;;;;;;4.04;100.00;100053.70;1722433;81;21024;-91
2022/12/09 07:09:20;;;;;;;23.92;12.78;;;;;;;4.17;100.00;100052.67;1739659;81;21115;-93
2022/12/09 07:11:47;;;;;;;24.85;12.53;;;;;;;4.15;100.00;100057.05;1731259;80;21102;-92
2022/12/09 07:14:19;;;;;;;24.27;11.97;;;;;;;4.17;100.00;100064.41;1736386;80;21350;-92
2022/12/09 07:16:49;;;;;;;29.67;14.20;;;;;;;4.20;100.00;100060.45;1734743;82;21068;-92
2022/12/09 07:19:18;;;;;;;23.85;11.95;;;;;;;3.93;100.00;100052.09;1726309;81;21128;-93
2022/12/09 07:21:48;;;;;;;26.27;12.28;;;;;;;4.07;100.00;100053.66;1715631;81;21064;-93
2022/12/09 07:24:27;;;;;;;56.42;21.77;;;;;;;3.83;100.00;100058.27;1731778;81;21547;-94
2022/12/09 07:27:05;;;;;;;48.95;19.52;;;;;;;3.85;100.00;100044.78;1702657;81;21063;-94
2022/12/09 07:29:36;;;;;;;29.20;13.95;;;;;;;4.09;100.00;100043.63;1731741;81;21016;-94
2022/12/09 07:32:06;;;;;;;31.02;15.25;;;;;;;4.03;100.00;100041.56;1735538;82;21017;-95
2022/12/09 07:34:39;;;;;;;41.90;18.27;;;;;;;4.02;100.00;100034.61;1699160;82;21038;-92
2022/12/09 07:37:12;;;;;;;100.40;36.40;;;;;;;3.98;100.00;100032.05;1735696;81;21074;-93
2022/12/09 07:39:42;;;;;;;44.98;19.50;;;;;;;4.15;100.00;100025.77;1724227;81;21008;-95
2022/12/09 07:42:09;;;;;;;32.48;16.20;;;;;;;4.45;100.00;100018.42;1726439;81;20977;-94
2022/12/09 07:44:58;;;;;;;39.67;19.00;;;;;;;4.48;100.00;100014.47;1732358;81;20940;-95
2022/12/09 07:47:32;;;;;;;107.95;44.75;;;;;;;4.63;100.00;100016.41;1713902;81;21068;-94
2022/12/09 07:50:09;;;;;;;81.42;30.00;;;;;;;4.63;100.00;100012.95;1713769;81;21060;-95
2022/12/09 07:52:38;;;;;;;40.20;19.90;;;;;;;4.41;100.00;100008.02;1701169;80;86253;-67
2022/12/09 07:55:07;;;;;;;42.43;20.37;;;;;;;4.48;100.00;100007.95;1732435;81;21054;-68
2022/12/09 07:57:34;;;;;;;38.67;19.37;;;;;;;4.41;100.00;100001.50;1706750;83;21028;-68
2022/12/09 08:00:01;;;;;;;31.27;15.80;;;;;;;4.31;100.00;100005.13;1713991;83;21115;-68
2022/12/09 08:02:29;;;;;;;37.98;18.45;;;;;;;4.42;100.00;100006.30;1712823;83;21567;-68
2022/12/09 08:04:58;;;;;;;43.50;20.80;;;;;;;4.42;100.00;100019.34;1711559;83;21527;-68
2022/12/09 08:07:26;;;;;;;52.13;23.75;;;;;;;4.23;100.00;100022.61;1721158;81;21080;-66
2022/12/09 08:09:55;;;;;;;271.57;83.37;;;;;;;4.46;100.00;100028.81;1690185;83;21050;-68
2022/12/09 08:12:23;;;;;;;43.15;20.52;;;;;;;4.66;100.00;100022.02;1678370;83;21127;-69
2022/12/09 08:14:49;;;;;;;44.00;18.82;;;;;;;4.55;100.00;100018.26;1699830;83;21094;-68
2022/12/09 08:17:16;;;;;;;37.10;18.35;;;;;;;4.47;100.00;100021.43;1712829;83;21159;-68
2022/12/09 08:19:42;;;;;;;54.88;24.92;;;;;;;4.25;100.00;100018.69;1714743;83;21102;-68
2022/12/09 08:22:09;;;;;;;116.77;44.30;;;;;;;4.15;100.00;100020.55;1709250;83;21045;-67
2022/12/09 08:24:35;;;;;;;64.55;27.67;;;;;;;4.59;100.00;100016.48;1708615;83;21171;-68
2022/12/09 08:27:01;;;;;;;44.70;20.57;;;;;;;4.57;100.00;100013.03;1710058;83;21297;-66
2022/12/09 08:29:28;;;;;;;43.73;20.12;;;;;;;4.49;100.00;100007.08;1710244;83;21637;-68
2022/12/09 08:31:54;;;;;;;50.85;21.02;;;;;;;4.37;100.00;100014.19;1719700;83;21122;-68
2022/12/09 08:34:21;;;;;;;69.35;36.50;;;;;;;4.46;100.00;100001.89;1717310;83;21074;-68
2022/12/09 08:36:48;;;;;;;39.83;21.33;;;;;;;4.81;100.00;100002.23;1693101;83;21529;-67
2022/12/09 08:39:14;;;;;;;50.65;22.35;;;;;;;4.43;100.00;100003.24;1710195;83;21080;-67
2022/12/09 08:41:42;;;;;;;60.35;25.17;;;;;;;4.50;100.00;100000.96;1709601;83;21247;-66
2022/12/09 08:44:18;;;;;;;60.80;25.62;;;;;;;4.62;100.00;99990.34;1707632;83;21093;-67
2022/12/09 08:46:48;;;;;;;54.25;25.15;;;;;;;4.82;100.00;99985.69;1709221;83;21045;-67
2022/12/09 08:49:20;;;;;;;46.18;22.67;;;;;;;4.71;100.00;99986.73;1707943;83;21546;-68
2022/12/09 08:51:45;;;;;;;42.83;22.32;;;;;;;5.02;100.00;99976.23;1682075;84;21663;-66
2022/12/09 08:54:12;;;;;;;54.98;26.77;;;;;;;4.74;100.00;99978.86;1684152;84;21270;-67
2022/12/09 08:56:38;;;;;;;58.33;28.30;;;;;;;5.02;100.00;99977.99;1683473;84;21070;-69
2022/12/09 08:59:05;;;;;;;57.27;28.92;;;;;;;4.81;100.00;99968.32;1682056;84;21060;-69
2022/12/09 09:01:33;;;;;;;67.97;29.20;;;;;;;5.22;100.00;99974.59;1685333;83;21123;-68
2022/12/09 09:04:07;;;;;;;79.85;35.25;;;;;;;5.46;100.00;99961.98;1686410;83;21103;-67
2022/12/09 09:06:36;;;;;;;47.03;23.10;;;;;;;5.36;100.00;99949.96;1683261;84;21075;-67
2022/12/09 09:09:04;;;;;;;45.12;24.18;;;;;;;5.44;100.00;99961.14;1692838;83;21054;-65
2022/12/09 09:11:32;;;;;;;55.15;27.30;;;;;;;5.48;100.00;99958.04;1688544;83;21202;-66
2022/12/09 09:14:03;;;;;;;66.70;33.13;;;;;;;5.11;100.00;99959.98;1688701;83;21161;-68
2022/12/09 09:16:31;;;;;;;78.07;36.88;;;;;;;5.75;100.00;99954.89;1685023;83;21562;-67
2022/12/09 09:18:58;;;;;;;69.50;33.98;;;;;;;5.96;100.00;99947.08;1706137;83;21144;-66
2022/12/09 09:21:26;;;;;;;94.47;42.65;;;;;;;5.99;100.00;99947.01;1710270;83;21037;-67
2022/12/09 09:23:54;;;;;;;142.28;50.17;;;;;;;5.94;100.00;99951.48;1709789;83;21574;-66
2022/12/09 09:26:24;;;;;;;120.08;45.35;;;;;;;5.82;100.00;99953.88;1716109;83;21073;-67
2022/12/09 09:28:50;;;;;;;70.67;31.87;;;;;;;5.94;100.00;99955.82;1705161;83;21054;-68
2022/12/09 09:31:19;;;;;;;69.92;34.40;;;;;;;5.95;100.00;99955.80;1712605;83;21485;-68
2022/12/09 09:33:46;;;;;;;80.03;35.52;;;;;;;6.11;100.00;99951.56;1712970;83;21034;-67
2022/12/09 09:36:17;;;;;;;126.42;47.10;;;;;;;6.01;100.00;99950.91;1708805;83;21225;-68
2022/12/09 09:38:44;;;;;;;74.77;34.38;;;;;;;5.66;100.00;99950.70;1710332;83;21043;-67
2022/12/09 09:41:51;;;;;;;70.00;32.50;;;;;;;5.50;100.00;99947.98;1709642;83;21048;-66
2022/12/09 09:44:40;;;;;;;64.47;31.40;;;;;;;5.30;100.00;99940.95;1715824;82;21160;-66
2022/12/09 09:47:27;;;;;;;54.35;25.65;;;;;;;5.05;100.00;99946.61;1663574;85;21060;-65
2022/12/09 09:50:07;;;;;;;65.28;31.17;;;;;;;5.49;100.00;99935.79;1665976;85;21179;-65
2022/12/09 09:52:34;;;;;;;72.70;33.20;;;;;;;5.24;100.00;99932.77;1664272;85;21136;-65
2022/12/09 09:55:03;;;;;;;71.97;31.35;;;;;;;5.30;100.00;99938.34;1665387;85;21170;-66
2022/12/09 09:57:44;;;;;;;67.80;32.08;;;;;;;5.23;100.00;99933.22;1668407;85;21156;-66
2022/12/09 10:00:38;;;;;;;98.05;39.20;;;;;;;5.29;100.00;99931.38;1708060;83;21024;-67
2022/12/09 10:03:25;;;;;;;68.40;28.00;;;;;;;5.40;100.00;99925.52;1700342;83;21069;-66
2022/12/09 10:05:53;;;;;;;59.58;27.62;;;;;;;5.33;100.00;99920.00;1706610;83;21219;-64
2022/12/09 10:08:57;;;;;;;50.73;24.32;;;;;;;5.72;100.00;99915.73;1710767;83;21058;-65
2022/12/09 10:11:31;;;;;;;52.17;24.80;;;;;;;5.87;100.00;99919.80;1682571;84;21160;-65
2022/12/09 10:14:28;;;;;;;60.65;26.90;;;;;;;5.88;100.00;99912.36;1684100;84;21589;-65
2022/12/09 10:17:23;;;;;;;54.70;25.75;;;;;;;6.18;100.00;99904.77;1685996;83;21039;-65
2022/12/09 10:20:12;;;;;;;47.00;22.10;;;;;;;5.66;100.00;99904.13;1685093;83;21075;-65
2022/12/09 10:23:03;;;;;;;47.62;21.73;;;;;;;5.66;100.00;99895.84;1682430;83;21054;-66
2022/12/09 14:32:53;;;;;;;120.60;44.20;;;;;;;-0.37;100.00;99781.45;1789554;78;22696;-86
2022/12/09 14:35:47;;;;;;;100.10;41.70;;;;;;;0.45;100.00;99771.96;1755380;80;21241;-85
2022/12/09 14:38:51;;;;;;;105.03;42.88;;;;;;;0.96;100.00;99766.20;1760543;80;21808;-88
2022/12/09 14:41:53;;;;;;;95.75;41.02;;;;;;;1.28;100.00;99763.90;1748021;80;21036;-89
2022/12/09 14:44:44;;;;;;;85.22;40.00;;;;;;;1.43;100.00;99765.13;1757769;80;21201;-88
2022/12/09 14:47:19;;;;;;;83.40;35.75;;;;;;;1.71;100.00;99768.84;1739293;80;21120;-88
2022/12/09 14:49:45;;;;;;;95.32;43.02;;;;;;;1.71;100.00;99779.23;1720959;81;21118;-86
2022/12/09 14:52:29;;;;;;;123.40;53.35;;;;;;;1.94;100.00;99786.00;1745485;81;21105;-90
2022/12/09 14:55:00;;;;;;;89.40;39.20;;;;;;;2.17;100.00;99784.08;1731886;80;21079;-88
2022/12/09 14:57:33;;;;;;;104.85;46.25;;;;;;;2.34;100.00;99775.27;1695625;81;21115;-87
2022/12/09 15:00:04;;;;;;;84.22;37.85;;;;;;;2.49;100.00;99782.94;1732612;81;21149;-90
2022/12/09 15:02:31;;;;;;;88.15;36.15;;;;;;;2.63;100.00;99788.84;1747424;80;21088;-89
2022/12/09 15:05:00;;;;;;;84.77;36.90;;;;;;;2.76;100.00;99793.91;1723499;80;21378;-89
2022/12/09 15:07:30;;;;;;;83.72;36.63;;;;;;;3.13;100.00;99787.42;1754107;80;21076;-88
2022/12/09 15:10:08;;;;;;;82.50;35.03;;;;;;;3.25;100.00;99786.86;1727257;80;21020;-91
2022/12/09 15:12:43;;;;;;;135.72;61.02;;;;;;;2.36;100.00;99796.91;1753615;80;21023;-87
2022/12/09 15:15:23;;;;;;;83.27;35.48;;;;;;;2.41;100.00;99792.52;1735197;80;21052;-87
2022/12/09 15:18:09;;;;;;;78.90;34.55;;;;;;;2.81;100.00;99789.55;1724861;80;21116;-88
2022/12/09 15:20:40;;;;;;;84.15;36.42;;;;;;;2.91;100.00;99792.45;1735801;80;21096;-87
2022/12/09 15:23:30;;;;;;;91.95;36.55;;;;;;;2.94;100.00;99792.00;1742727;80;20960;-90
2022/12/09 15:26:04;;;;;;;90.72;38.23;;;;;;;3.24;100.00;99786.42;1725188;81;20993;-88
2022/12/09 15:28:35;;;;;;;112.65;43.33;;;;;;;3.48;100.00;99786.11;1737166;80;21004;-88
2022/12/09 15:31:17;;;;;;;165.37;53.10;;;;;;;3.91;100.00;99789.41;1734293;80;21568;-89
2022/12/09 15:33:49;;;;;;;114.65;42.73;;;;;;;3.85;100.00;99782.13;1736494;80;21058;-87
2022/12/09 15:36:38;;;;;;;93.55;38.98;;;;;;;3.91;100.00;99784.20;1762456;80;21102;-88
2022/12/09 15:39:32;;;;;;;115.47;45.58;;;;;;;3.92;100.00;99795.02;1763659;80;21096;-87
2022/12/09 15:42:09;;;;;;;129.40;48.00;;;;;;;4.22;100.00;99787.60;1759995;80;21070;-92
2022/12/09 15:44:50;;;;;;;178.10;66.02;;;;;;;4.25;100.00;99791.90;1729063;81;21118;-90
2022/12/09 15:47:34;;;;;;;146.60;56.02;;;;;;;4.25;100.00;99797.97;1753732;80;21580;-89
2022/12/09 15:50:17;;;;;;;140.03;58.08;;;;;;;4.25;100.00;99807.54;1729507;80;21088;-89
2022/12/09 15:53:13;;;;;;;118.25;47.65;;;;;;;4.36;100.00;99801.25;1735984;80;21141;-89
2022/12/09 15:55:50;;;;;;;127.95;50.90;;;;;;;4.39;100.00;99797.73;1746265;80;21071;-90
2022/12/09 15:58:21;;;;;;;110.15;44.53;;;;;;;4.55;100.00;99796.58;1737757;80;21245;-92
2022/12/09 16:00:48;;;;;;;84.80;35.73;;;;;;;4.62;100.00;99792.11;1745038;80;21106;-88
2022/12/09 16:03:30;;;;;;;92.92;37.03;;;;;;;4.66;100.00;99795.09;1731726;81;21641;-89
2022/12/09 16:06:02;;;;;;;99.70;41.15;;;;;;;4.93;100.00;99795.47;1741940;80;21066;-89
2022/12/09 16:08:41;;;;;;;114.75;44.67;;;;;;;4.81;100.00;99790.91;1762181;80;21118;-88
2022/12/09 16:11:14;;;;;;;103.50;44.95;;;;;;;4.74;100.00;99785.39;1749462;80;21121;-88
2022/12/09 16:14:01;;;;;;;114.70;44.77;;;;;;;4.98;100.00;99776.66;1712541;81;21039;-90
2022/12/09 16:16:41;;;;;;;106.10;42.15;;;;;;;4.88;100.00;99773.39;1697108;81;21588;-91
2022/12/09 16:19:37;;;;;;;104.83;41.55;;;;;;;5.00;100.00;99772.28;1748915;80;21006;-89
2022/12/09 16:22:31;;;;;;;115.17;43.87;;;;;;;4.90;100.00;99775.52;1726176;80;21012;-89
2022/12/09 16:25:06;;;;;;;96.57;38.45;;;;;;;4.47;100.00;99774.16;1747344;80;21167;-89
2022/12/09 16:27:47;;;;;;;105.15;40.90;;;;;;;4.16;100.00;99768.14;1762079;80;21062;-90
2022/12/09 16:30:23;;;;;;;116.62;53.92;;;;;;;4.46;100.00;99764.59;1733613;81;21086;-90
2022/12/09 16:32:53;;;;;;;99.30;40.65;;;;;;;4.37;100.00;99763.89;1717682;81;20989;-87
2022/12/09 16:35:33;;;;;;;94.07;38.88;;;;;;;4.58;100.00;99760.48;1731151;81;21092;-89
2022/12/09 16:38:11;;;;;;;108.85;42.38;;;;;;;4.54;100.00;99754.90;1727979;81;21439;-87
2022/12/09 16:40:49;;;;;;;90.83;35.80;;;;;;;4.74;100.00;99752.78;1730790;81;21041;-89
2022/12/09 16:43:21;;;;;;;92.15;37.20;;;;;;;4.78;100.00;99753.11;1730373;81;21068;-90
2022/12/09 16:45:53;;;;;;;108.92;40.40;;;;;;;4.94;100.00;99754.12;1731721;81;21731;-91
2022/12/09 16:48:23;;;;;;;92.25;38.20;;;;;;;4.79;100.00;99748.33;1730266;81;21112;-89
2022/12/09 16:50:54;;;;;;;;;;;;;;;4.46;100.00;99751.56;1730861;81;21191;-89
2022/12/09 16:53:31;;;;;;;103.53;39.73;;;;;;;4.74;100.00;99753.20;1699811;83;20483;-90
2022/12/09 16:56:02;;;;;;;91.40;37.60;;;;;;;4.48;100.00;99765.43;1699787;83;21040;-88
2022/12/09 16:58:32;;;;;;;103.67;41.85;;;;;;;4.52;100.00;99765.80;1690167;83;21160;-89
2022/12/09 17:01:00;;;;;;;87.37;33.35;;;;;;;4.95;100.00;99764.99;1702657;83;20976;-89
2022/12/09 17:03:37;;;;;;;88.75;36.08;;;;;;;5.01;100.00;99767.01;1671241;84;21079;-90
2022/12/09 17:06:05;;;;;;;107.22;39.35;;;;;;;4.98;100.00;99771.45;1699173;83;21065;-88
2022/12/09 17:08:36;;;;;;;110.85;43.83;;;;;;;5.10;100.00;99779.02;1675372;83;21060;-89
2022/12/09 17:11:09;;;;;;;113.12;45.17;;;;;;;5.16;100.00;99778.05;1700026;83;21079;-88
2022/12/09 17:13:50;;;;;;;105.97;40.38;;;;;;;4.94;100.00;99765.41;1672378;84;21075;-90
2022/12/09 17:16:22;;;;;;;91.10;35.15;;;;;;;5.06;100.00;99773.44;1700206;83;21001;-91
2022/12/09 17:18:50;;;;;;;104.03;42.25;;;;;;;4.90;100.00;99773.33;1699794;83;21123;-91
2022/12/09 17:21:21;;;;;;;112.75;41.65;;;;;;;4.72;100.00;99779.79;1672555;85;21061;-88
2022/12/09 17:23:52;;;;;;;178.00;58.30;;;;;;;4.48;100.00;99777.16;1671896;81;89283;-68
2022/12/09 17:26:19;;;;;;;115.03;43.75;;;;;;;4.77;100.00;99775.34;1686288;84;21572;-67
2022/12/09 17:28:46;;;;;;;135.40;50.20;;;;;;;4.84;100.00;99773.88;1685177;84;21106;-67
2022/12/09 17:31:19;;;;;;;131.87;46.92;;;;;;;4.84;100.00;99771.27;1700124;83;21622;-67
2022/12/09 17:33:46;;;;;;;148.10;57.65;;;;;;;4.77;100.00;99768.36;1723930;82;21029;-68
2022/12/09 17:36:13;;;;;;;129.72;50.10;;;;;;;4.84;100.00;99768.66;1740428;81;21049;-68
2022/12/09 17:38:40;;;;;;;160.00;58.68;;;;;;;4.67;100.00;99772.05;1742579;81;21103;-67
2022/12/09 17:41:14;;;;;;;120.47;42.50;;;;;;;4.95;100.00;99763.69;1743669;81;21083;-68
2022/12/09 17:43:41;;;;;;;139.15;47.27;;;;;;;5.00;100.00;99769.67;1747864;81;21033;-67
2022/12/09 17:46:09;;;;;;;145.55;53.02;;;;;;;5.08;100.00;99769.50;1745427;81;21139;-68
2022/12/09 17:48:35;;;;;;;124.30;42.65;;;;;;;4.72;100.00;99759.77;1727234;82;21525;-66
2022/12/09 17:51:07;;;;;;;138.25;47.62;;;;;;;4.84;100.00;99764.74;1735280;81;21108;-68
2022/12/09 17:53:35;;;;;;;;;;;;;;;4.56;100.00;99764.86;1727248;82;21190;-66
2022/12/09 17:56:11;;;;;;;155.03;57.27;;;;;;;4.51;100.00;99775.80;1736518;82;20183;-68
2022/12/09 17:58:38;;;;;;;176.90;62.27;;;;;;;4.37;100.00;99776.04;1735403;82;21167;-67
2022/12/09 18:01:06;;;;;;;187.25;65.75;;;;;;;4.53;100.00;99763.59;1740405;81;21182;-67
2022/12/09 18:03:33;;;;;;;141.70;50.23;;;;;;;4.59;100.00;99763.49;1738840;82;21020;-68
2022/12/09 18:06:00;;;;;;;410.73;189.03;;;;;;;4.61;100.00;99751.28;1739268;81;21107;-69
2022/12/09 18:08:28;;;;;;;119.72;50.75;;;;;;;4.57;100.00;99750.47;1737717;81;21096;-68
2022/12/09 18:10:55;;;;;;;210.70;103.07;;;;;;;4.40;100.00;99750.79;1740356;81;21031;-69
2022/12/09 18:13:21;;;;;;;178.53;84.40;;;;;;;4.39;100.00;99759.51;1739508;81;21065;-68
2022/12/09 18:15:49;;;;;;;131.22;56.95;;;;;;;4.65;100.00;99750.77;1739109;82;21024;-68
2022/12/09 18:18:15;;;;;;;145.97;57.73;;;;;;;4.87;100.00;99749.92;1738916;82;21395;-67
2022/12/09 18:20:42;;;;;;;111.55;42.78;;;;;;;4.95;100.00;99745.42;1739865;81;21091;-68
2022/12/09 18:23:10;;;;;;;157.32;55.03;;;;;;;4.69;100.00;99743.30;1739289;81;21090;-68
2022/12/09 18:25:39;;;;;;;167.40;64.70;;;;;;;4.83;100.00;99741.28;1739609;81;21106;-68
2022/12/09 18:28:06;;;;;;;107.52;44.25;;;;;;;4.79;100.00;99737.03;1738742;81;21745;-68
2022/12/09 18:30:33;;;;;;;120.97;47.53;;;;;;;4.63;100.00;99734.72;1739423;81;21273;-68
2022/12/09 18:33:00;;;;;;;109.40;42.48;;;;;;;4.59;100.00;99726.98;1726145;81;21048;-68
2022/12/09 18:35:26;;;;;;;103.97;41.92;;;;;;;4.62;100.00;99732.13;1652067;85;21121;-68
2022/12/09 18:37:53;;;;;;;141.07;49.05;;;;;;;4.46;100.00;99722.88;1693216;84;21060;-68
2022/12/09 18:40:20;;;;;;;108.57;42.88;;;;;;;4.41;100.00;99722.51;1696784;84;21081;-69
2022/12/09 18:42:50;;;;;;;107.75;39.88;;;;;;;4.58;100.00;99720.91;1701118;83;21206;-68
